Terminal Aerodrome Forecast
Issued by NWS

Home | Current Version | Previous Version | Text Only | Print | Product List | Glossary On
Versions: 1 2 3 4 5 6 7 8 9 10 11 12 13 14 15 16
000
FTUS45 KTFX 281800 AAA
TAFHLN
TAF AMD
KHLN 281812Z 2818/2918 31010KT P6SM SCT025 OVC045
      TEMPO 2819/2823 3SM -SN BR OVC025
     FM290300 31010KT 2SM BR OVC025=

USA.gov is the U.S. government's official web portal to all federal, state and local government web resources and services.